createdAt,value
2018-12-20T00:01:31.850Z,97024.73
2018-12-20T00:04:13.157Z,97025.00
2018-12-20T00:06:55.167Z,97029.48
2018-12-20T00:09:30.881Z,97026.14
2018-12-20T00:12:04.433Z,97025.16
2018-12-20T00:14:45.876Z,97029.06
2018-12-20T00:17:33.183Z,97024.98
2018-12-20T00:20:06.896Z,97028.78
2018-12-20T00:22:49.255Z,97028.84
2018-12-20T00:25:32.241Z,97028.73
2018-12-20T00:28:11.630Z,97022.58
2018-12-20T00:30:53.151Z,97029.03
2018-12-20T00:33:35.224Z,97030.94
2018-12-20T00:36:15.563Z,97031.20
2018-12-20T00:38:57.648Z,97035.67
2018-12-20T00:41:30.881Z,97030.75
2018-12-20T00:44:12.638Z,97033.11
2018-12-20T00:46:54.394Z,97033.31
2018-12-20T00:49:27.413Z,97036.17
2018-12-20T00:52:08.645Z,97039.95
2018-12-20T00:54:50.558Z,97033.40
2018-12-20T00:57:32.426Z,97036.64
2018-12-20T01:00:09.517Z,97037.45
2018-12-20T01:02:55.273Z,97039.75
2018-12-20T01:05:28.979Z,97041.08
2018-12-20T01:08:10.425Z,97047.62
2018-12-20T01:10:43.522Z,97045.69
2018-12-20T01:13:25.568Z,97045.69
2018-12-20T01:16:07.317Z,97044.88
2018-12-20T01:18:49.222Z,97049.09
2018-12-20T01:21:24.664Z,97059.58
2018-12-20T01:24:06.060Z,97062.66
2018-12-20T01:26:47.751Z,97062.97
2018-12-20T01:29:20.996Z,97059.02
2018-12-20T01:32:03.153Z,97062.66
2018-12-20T01:34:33.850Z,97067.67
2018-12-20T01:37:15.565Z,97063.75
2018-12-20T01:39:50.285Z,97067.05
2018-12-20T01:42:31.718Z,97074.38
2018-12-20T01:45:05.374Z,97075.56
2018-12-20T01:47:46.846Z,97076.52
2018-12-20T01:50:19.860Z,97077.34
2018-12-20T01:53:01.017Z,97076.47
2018-12-20T01:55:36.833Z,97075.92
2018-12-20T01:58:18.219Z,97078.97
2018-12-20T02:00:51.437Z,97084.50
2018-12-20T02:03:33.548Z,97089.27
2018-12-20T02:06:15.349Z,97094.50
2018-12-20T02:08:57.650Z,97088.11
2018-12-20T02:11:32.824Z,97086.70
2018-12-20T02:14:14.396Z,97082.68
2018-12-20T02:16:56.279Z,97087.55
2018-12-20T02:19:30.456Z,97082.73
2018-12-20T02:22:01.540Z,97084.19
2018-12-20T02:24:37.126Z,97088.44
2018-12-20T02:27:19.176Z,97088.44
2018-12-20T02:29:52.316Z,97085.46
2018-12-20T02:32:34.173Z,97095.76
2018-12-20T02:35:22.607Z,97088.31
2018-12-20T02:38:04.047Z,97091.20
2018-12-20T02:40:38.049Z,97084.85
2018-12-20T02:43:19.990Z,97091.92
2018-12-20T02:45:55.685Z,97088.33
2018-12-20T02:48:37.100Z,97092.53
2018-12-20T02:51:16.779Z,97082.28
2018-12-20T02:53:58.220Z,97079.01
2018-12-20T02:56:40.297Z,97079.41
2018-12-20T02:59:27.365Z,97075.63
2018-12-20T03:02:09.269Z,97079.73
2018-12-20T03:04:51.202Z,97074.78
2018-12-20T03:07:33.367Z,97069.16
2018-12-20T03:10:06.725Z,97064.48
2018-12-20T03:12:48.242Z,97069.20
2018-12-20T03:15:30.228Z,97074.44
2018-12-20T03:18:05.783Z,97076.83
2018-12-20T03:20:38.268Z,97069.80
2018-12-20T03:23:20.087Z,97065.78
2018-12-20T03:25:51.596Z,97069.50
2018-12-20T03:28:33.389Z,97065.91
2018-12-20T03:31:06.763Z,97070.66
2018-12-20T03:33:49.036Z,97068.28
2018-12-20T03:36:29.320Z,97069.95
2018-12-20T03:39:10.935Z,97067.30
2018-12-20T03:41:53.058Z,97062.40
2018-12-20T03:44:34.962Z,97071.45
2018-12-20T03:47:05.950Z,97062.16
2018-12-20T03:49:38.989Z,97064.51
2018-12-20T03:52:21.106Z,97063.88
2018-12-20T03:55:03.228Z,97071.34
2018-12-20T03:57:45.030Z,97065.09
2018-12-20T04:00:18.242Z,97069.98
2018-12-20T04:03:00.126Z,97073.57
2018-12-20T04:05:47.126Z,97082.92
2018-12-20T04:08:29.169Z,97077.59
2018-12-20T04:11:02.427Z,97081.63
2018-12-20T04:13:33.452Z,97083.45
2018-12-20T04:16:08.986Z,97085.07
2018-12-20T04:18:40.541Z,97085.81
2018-12-20T04:21:13.725Z,97084.03
2018-12-20T04:23:56.677Z,97079.03
2018-12-20T04:26:38.666Z,97085.08
2018-12-20T04:29:20.457Z,97077.27
2018-12-20T04:32:02.770Z,97083.44
2018-12-20T04:34:44.287Z,97079.39
2018-12-20T04:37:15.504Z,97079.52
2018-12-20T04:39:48.484Z,97081.79
2018-12-20T04:42:30.791Z,97084.79
2018-12-20T04:45:08.167Z,97087.38
2018-12-20T04:47:49.777Z,97091.58
2018-12-20T04:50:31.548Z,97091.63
2018-12-20T04:53:13.430Z,97093.82
2018-12-20T04:55:55.232Z,97092.70
2018-12-20T04:58:36.329Z,97099.58
2018-12-20T05:01:08.825Z,97107.27
2018-12-20T05:04:04.202Z,97109.91
2018-12-20T05:06:46.430Z,97119.73
2018-12-20T05:09:28.003Z,97124.95
2018-12-20T05:12:03.428Z,97124.47
2018-12-20T05:14:50.070Z,97125.14
2018-12-20T05:17:31.783Z,97121.27
2018-12-20T05:20:07.736Z,97124.62
2018-12-20T05:22:38.917Z,97135.09
2018-12-20T05:25:20.195Z,97131.07
2018-12-20T05:28:01.895Z,97125.55
2018-12-20T05:33:43.426Z,97132.82
2018-12-20T05:36:19.142Z,97140.41
2018-12-20T05:39:13.091Z,97134.48
2018-12-20T05:41:43.784Z,97141.47
2018-12-20T05:44:25.751Z,97138.58
2018-12-20T05:50:01.169Z,97146.97
2018-12-20T05:52:42.627Z,97140.57
2018-12-20T05:55:13.804Z,97150.59
2018-12-20T05:57:56.724Z,97157.69
2018-12-20T06:00:30.200Z,97162.41
2018-12-20T06:03:12.139Z,97163.84
2018-12-20T06:05:54.028Z,97169.22
2018-12-20T06:08:35.680Z,97166.47
2018-12-20T06:11:08.939Z,97158.52
2018-12-20T06:13:50.780Z,97150.70
2018-12-20T06:16:32.731Z,97142.53
2018-12-20T06:19:22.993Z,97150.13
2018-12-20T06:22:04.349Z,97157.67
2018-12-20T06:24:46.184Z,97157.84
2018-12-20T06:27:21.715Z,97169.02
2018-12-20T06:29:54.280Z,97169.80
2018-12-20T06:32:36.169Z,97168.52
2018-12-20T06:35:18.104Z,97167.68
2018-12-20T06:37:59.956Z,97168.78
2018-12-20T06:40:33.242Z,97171.98
2018-12-20T06:43:15.215Z,97173.98
2018-12-20T06:45:56.421Z,97174.02
2018-12-20T06:48:39.379Z,97186.64
2018-12-20T06:51:12.683Z,97181.71
2018-12-20T06:53:54.552Z,97188.56
2018-12-20T06:56:25.841Z,97186.23
2018-12-20T06:59:07.813Z,97191.48
2018-12-20T07:01:49.943Z,97190.00
2018-12-20T07:04:31.032Z,97185.21
2018-12-20T07:07:01.508Z,97194.94
2018-12-20T07:09:34.668Z,97193.44
2018-12-20T07:12:15.880Z,97198.51
2018-12-20T07:17:47.823Z,97200.91
2018-12-20T07:23:08.887Z,97208.05
2018-12-20T07:25:50.645Z,97205.14
2018-12-20T07:28:24.631Z,97203.77
2018-12-20T07:30:57.857Z,97199.37
2018-12-20T07:33:39.012Z,97204.09
2018-12-20T07:36:20.757Z,97208.92
2018-12-20T07:38:53.722Z,97214.43
2018-12-20T07:41:26.180Z,97213.73
2018-12-20T07:44:03.788Z,97224.41
2018-12-20T07:46:45.287Z,97220.98
2018-12-20T07:49:27.535Z,97215.21
2018-12-20T07:52:10.395Z,97210.38
2018-12-20T07:54:43.456Z,97204.56
2018-12-20T07:57:14.623Z,97213.44
2018-12-20T07:59:47.755Z,97206.86
2018-12-20T08:02:29.721Z,97207.74
2018-12-20T08:05:11.705Z,97208.12
2018-12-20T08:07:53.582Z,97209.02
2018-12-20T08:10:29.227Z,97213.40
2018-12-20T08:13:01.040Z,97207.66
2018-12-20T08:15:42.615Z,97205.17
2018-12-20T08:18:13.840Z,97209.06
2018-12-20T08:20:53.916Z,97207.12
2018-12-20T08:23:35.731Z,97212.63
2018-12-20T08:26:16.907Z,97220.63
2018-12-20T08:28:58.744Z,97224.72
2018-12-20T08:31:31.111Z,97232.37
2018-12-20T08:34:12.807Z,97239.02
2018-12-20T08:36:59.739Z,97243.05
2018-12-20T08:39:32.764Z,97250.30
2018-12-20T08:42:13.845Z,97246.80
2018-12-20T08:44:55.720Z,97255.80
2018-12-20T08:47:37.687Z,97251.84
2018-12-20T08:50:10.969Z,97254.23
2018-12-20T08:52:53.083Z,97251.34
2018-12-20T08:55:34.891Z,97245.56
2018-12-20T08:58:09.619Z,97250.44
2018-12-20T09:00:42.248Z,97243.31
2018-12-20T09:03:23.656Z,97249.38
2018-12-20T09:06:05.564Z,97259.67
2018-12-20T09:08:47.395Z,97264.69
2018-12-20T09:11:20.543Z,97265.27
2018-12-20T09:14:01.658Z,97263.70
2018-12-20T09:16:43.524Z,97264.70
2018-12-20T09:19:25.371Z,97270.47
2018-12-20T09:22:07.372Z,97268.23
2018-12-20T09:24:49.269Z,97282.05
2018-12-20T09:27:31.328Z,97287.48
2018-12-20T09:30:04.726Z,97290.84
2018-12-20T09:32:46.227Z,97294.89
2018-12-20T09:35:20.174Z,97288.61
2018-12-20T09:38:01.483Z,97288.25
2018-12-20T09:40:34.017Z,97294.45
2018-12-20T09:43:07.009Z,97296.69
2018-12-20T09:45:48.081Z,97294.06
2018-12-20T09:48:30.572Z,97291.69
2018-12-20T09:53:54.476Z,97281.84
2018-12-20T09:56:36.751Z,97280.64
2018-12-20T09:59:18.641Z,97280.99
2018-12-20T10:02:00.532Z,97290.84
2018-12-20T10:04:41.636Z,97287.09
2018-12-20T10:07:22.686Z,97283.42
2018-12-20T10:09:55.803Z,97281.69
2018-12-20T10:12:37.821Z,97275.19
2018-12-20T10:15:19.824Z,97280.82
2018-12-20T10:18:03.587Z,97277.75
2018-12-20T10:20:35.919Z,97285.52
2018-12-20T10:23:17.850Z,97277.59
2018-12-20T10:25:59.877Z,97283.56
2018-12-20T10:28:49.171Z,97278.99
2018-12-20T10:31:21.715Z,97278.84
2018-12-20T10:33:52.674Z,97289.56
2018-12-20T10:36:40.424Z,97284.59
2018-12-20T10:39:22.252Z,97279.76
2018-12-20T10:42:04.148Z,97269.69
2018-12-20T10:44:45.263Z,97267.20
2018-12-20T10:47:29.194Z,97267.34
2018-12-20T10:50:09.636Z,97268.52
2018-12-20T10:52:42.080Z,97260.39
2018-12-20T10:55:15.254Z,97258.04
2018-12-20T10:57:56.913Z,97251.63
2018-12-20T11:00:34.191Z,97249.62
2018-12-20T11:03:11.801Z,97250.08
2018-12-20T11:06:01.579Z,97238.34
2018-12-20T11:09:50.173Z,97240.95
2018-12-20T11:12:31.525Z,97238.14
2018-12-20T11:15:05.508Z,97242.83
2018-12-20T11:17:46.757Z,97235.22
2018-12-20T11:20:22.295Z,97235.20
2018-12-20T11:23:02.391Z,97230.56
2018-12-20T11:25:43.935Z,97233.84
2018-12-20T11:28:15.071Z,97234.30
2018-12-20T11:30:48.844Z,97235.13
2018-12-20T11:33:30.896Z,97225.48
2018-12-20T11:36:12.662Z,97229.77
2018-12-20T11:38:54.530Z,97233.50
2018-12-20T11:41:27.857Z,97229.47
2018-12-20T11:44:09.794Z,97216.91
2018-12-20T11:46:51.854Z,97209.05
2018-12-20T11:49:23.852Z,97214.18
2018-12-20T11:51:56.847Z,97204.17
2018-12-20T11:54:38.004Z,97204.84
2018-12-20T11:57:20.079Z,97209.48
2018-12-20T11:59:55.736Z,97206.06
2018-12-20T12:02:26.355Z,97201.99
2018-12-20T12:05:07.455Z,97200.25
2018-12-20T12:07:51.504Z,97202.05
2018-12-20T12:10:24.605Z,97199.98
2018-12-20T12:13:06.560Z,97195.25
2018-12-20T12:15:48.578Z,97200.88
2018-12-20T12:18:21.701Z,97196.47
2018-12-20T12:20:54.237Z,97192.65
2018-12-20T12:23:35.984Z,97186.73
2018-12-20T12:26:17.112Z,97189.36
2018-12-20T12:28:50.463Z,97188.90
2018-12-20T12:31:28.144Z,97192.48
2018-12-20T12:34:14.568Z,97185.22
2018-12-20T12:36:56.480Z,97192.47
2018-12-20T12:39:29.535Z,97186.77
2018-12-20T12:42:00.908Z,97187.05
2018-12-20T12:44:38.367Z,97182.78
2018-12-20T12:47:23.848Z,97186.26
2018-12-20T12:49:56.248Z,97189.30
2018-12-20T12:52:38.223Z,97183.56
2018-12-20T12:55:24.863Z,97182.52
2018-12-20T12:58:06.139Z,97179.74
2018-12-20T13:00:39.303Z,97185.84
2018-12-20T13:03:21.256Z,97186.16
2018-12-20T13:06:02.879Z,97179.61
2018-12-20T13:08:38.217Z,97177.23
2018-12-20T13:11:11.046Z,97178.81
2018-12-20T13:13:52.645Z,97190.46
2018-12-20T13:16:28.068Z,97179.98
2018-12-20T13:19:09.727Z,97184.48
2018-12-20T13:21:51.619Z,97187.41
2018-12-20T13:24:33.517Z,97190.96
2018-12-20T13:27:19.493Z,97205.48
2018-12-20T13:29:52.479Z,97207.56
2018-12-20T13:32:34.230Z,97208.20
2018-12-20T13:35:19.423Z,97209.75
2018-12-20T13:37:54.936Z,97213.41
2018-12-20T13:40:28.742Z,97210.22
2018-12-20T13:43:10.767Z,97208.09
2018-12-20T13:45:52.594Z,97220.53
2018-12-20T13:48:34.295Z,97211.83
2018-12-20T13:51:06.747Z,97215.89
2018-12-20T13:53:48.675Z,97217.29
2018-12-20T13:56:24.223Z,97217.80
2018-12-20T13:59:05.873Z,97215.75
2018-12-20T14:01:40.017Z,97220.85
2018-12-20T14:04:21.699Z,97220.95
2018-12-20T14:07:03.026Z,97223.25
2018-12-20T14:09:38.821Z,97231.95
2018-12-20T14:12:21.003Z,97232.70
2018-12-20T14:15:05.500Z,97232.13
2018-12-20T14:17:46.946Z,97236.88
2018-12-20T14:20:20.554Z,97240.52
2018-12-20T14:22:57.263Z,97243.66
2018-12-20T14:25:29.343Z,97238.42
2018-12-20T14:28:06.264Z,97243.20
2018-12-20T14:30:42.086Z,97242.59
2018-12-20T14:33:21.908Z,97243.26
2018-12-20T14:35:52.670Z,97239.63
2018-12-20T14:38:34.580Z,97238.56
2018-12-20T14:41:07.743Z,97233.78
2018-12-20T14:43:49.472Z,97232.44
2018-12-20T14:46:36.386Z,97239.64
2018-12-20T14:49:18.260Z,97236.94
2018-12-20T14:52:00.355Z,97241.91
2018-12-20T14:54:42.040Z,97239.64
2018-12-20T14:57:23.958Z,97243.03
2018-12-20T14:59:57.043Z,97247.42
2018-12-20T15:02:41.279Z,97252.45
2018-12-20T15:05:23.187Z,97247.44
2018-12-20T15:08:04.692Z,97250.48
2018-12-20T15:10:37.902Z,97246.84
2018-12-20T15:13:10.852Z,97247.73
2018-12-20T15:15:52.743Z,97243.64
2018-12-20T15:18:34.888Z,97246.86
2018-12-20T15:21:17.468Z,97246.09
2018-12-20T15:23:59.195Z,97255.18
2018-12-20T15:26:40.357Z,97260.07
2018-12-20T15:29:14.823Z,97251.91
2018-12-20T15:31:56.690Z,97252.88
2018-12-20T15:34:37.763Z,97253.63
2018-12-20T15:37:19.802Z,97252.36
2018-12-20T15:39:52.938Z,97250.78
2018-12-20T15:42:25.299Z,97254.84
2018-12-20T15:44:57.577Z,97254.88
2018-12-20T15:47:28.676Z,97263.70
2018-12-20T15:50:05.199Z,97262.34
2018-12-20T15:52:46.524Z,97271.21
2018-12-20T15:55:28.332Z,97272.36
2018-12-20T15:58:10.332Z,97274.23
2018-12-20T16:00:43.713Z,97265.62
2018-12-20T16:03:25.430Z,97270.63
2018-12-20T16:06:07.300Z,97265.39
2018-12-20T16:08:49.307Z,97274.39
2018-12-20T16:11:22.484Z,97270.97
2018-12-20T16:14:04.286Z,97274.75
2018-12-20T16:19:29.119Z,97282.13
2018-12-20T16:22:10.929Z,97283.80
2018-12-20T16:24:52.807Z,97285.55
2018-12-20T16:27:34.732Z,97280.94
2018-12-20T16:30:10.252Z,97289.56
2018-12-20T16:32:52.211Z,97292.77
2018-12-20T16:35:33.894Z,97280.67
2018-12-20T16:38:14.432Z,97284.68
2018-12-20T16:40:47.399Z,97290.13
2018-12-20T16:43:23.063Z,97287.98
2018-12-20T16:46:04.498Z,97288.70
2018-12-20T16:48:53.676Z,97295.27
2018-12-20T16:51:26.675Z,97297.01
2018-12-20T16:54:11.305Z,97293.78
2018-12-20T16:56:53.405Z,97302.31
2018-12-20T16:59:28.174Z,97303.46
2018-12-20T17:02:03.183Z,97307.86
2018-12-20T17:04:44.455Z,97298.55
2018-12-20T17:07:18.048Z,97298.02
2018-12-20T17:09:59.784Z,97304.41
2018-12-20T17:12:34.829Z,97303.25
2018-12-20T17:15:18.223Z,97312.46
2018-12-20T17:18:00.055Z,97315.83
2018-12-20T17:20:34.101Z,97318.71
2018-12-20T17:23:21.903Z,97320.75
2018-12-20T17:26:03.675Z,97325.83
2018-12-20T17:28:45.591Z,97334.43
2018-12-20T17:31:18.624Z,97325.79
2018-12-20T17:34:01.792Z,97335.72
2018-12-20T17:36:43.457Z,97344.81
2018-12-20T17:39:25.613Z,97352.13
2018-12-20T17:42:00.413Z,97346.33
2018-12-20T17:44:31.225Z,97353.09
2018-12-20T17:47:13.279Z,97352.45
2018-12-20T17:49:46.491Z,97356.08
2018-12-20T17:52:28.518Z,97356.28
2018-12-20T17:55:05.387Z,97356.52
2018-12-20T17:57:51.565Z,97355.34
2018-12-20T18:00:24.744Z,97366.22
2018-12-20T18:03:06.744Z,97375.26
2018-12-20T18:05:48.651Z,97369.56
2018-12-20T18:08:31.656Z,97383.97
2018-12-20T18:11:04.818Z,97386.55
2018-12-20T18:13:46.928Z,97385.41
2018-12-20T18:16:22.329Z,97385.09
2018-12-20T18:19:03.719Z,97381.23
2018-12-20T18:21:37.160Z,97382.50
2018-12-20T18:24:19.650Z,97390.65
2018-12-20T18:27:01.046Z,97384.53
2018-12-20T18:29:34.231Z,97392.59
2018-12-20T18:32:05.455Z,97400.55
2018-12-20T18:34:38.641Z,97399.98
2018-12-20T18:37:20.466Z,97401.80
2018-12-20T18:39:53.578Z,97397.77
2018-12-20T18:42:35.653Z,97395.05
2018-12-20T18:45:17.611Z,97401.48
2018-12-20T18:47:48.799Z,97399.46
2018-12-20T18:50:21.862Z,97405.78
2018-12-20T18:53:08.884Z,97403.44
2018-12-20T18:55:50.767Z,97414.95
2018-12-20T18:58:21.491Z,97412.33
2018-12-20T19:00:54.557Z,97403.61
2018-12-20T19:03:36.479Z,97404.33
2018-12-20T19:06:24.260Z,97410.09
2018-12-20T19:09:06.396Z,97420.16
2018-12-20T19:11:39.231Z,97419.14
2018-12-20T19:14:21.023Z,97416.47
2018-12-20T19:17:02.950Z,97414.16
2018-12-20T19:19:44.894Z,97405.97
2018-12-20T19:22:26.929Z,97410.15
2018-12-20T19:25:03.299Z,97405.30
2018-12-20T19:27:45.183Z,97410.73
2018-12-20T19:30:18.429Z,97410.41
2018-12-20T19:33:03.719Z,97416.52
2018-12-20T19:35:48.238Z,97413.70
2018-12-20T19:38:27.721Z,97410.87
2018-12-20T19:41:06.683Z,97415.08
2018-12-20T19:43:42.725Z,97421.73
2018-12-20T19:46:15.881Z,97412.41
2018-12-20T19:48:58.264Z,97405.88
2018-12-20T19:51:40.244Z,97416.06
2018-12-20T19:54:16.403Z,97414.58
2018-12-20T19:56:55.202Z,97418.70
2018-12-20T19:59:38.692Z,97426.57
2018-12-20T20:02:18.803Z,97426.65
2018-12-20T20:05:04.764Z,97417.09
2018-12-20T20:07:47.006Z,97413.62
2018-12-20T20:10:21.099Z,97413.98
2018-12-20T20:13:02.973Z,97408.08
2018-12-20T20:15:38.470Z,97402.96
2018-12-20T20:18:17.668Z,97405.62
2018-12-20T20:20:51.303Z,97405.91
2018-12-20T20:23:24.341Z,97408.02
2018-12-20T20:25:59.840Z,97406.36
2018-12-20T20:28:41.440Z,97406.98
2018-12-20T20:31:14.620Z,97408.92
2018-12-20T20:33:56.779Z,97405.77
2018-12-20T20:36:38.785Z,97406.91
2018-12-20T20:39:21.143Z,97399.45
2018-12-20T20:42:04.023Z,97394.59
2018-12-20T20:44:52.097Z,97389.42
2018-12-20T20:47:32.997Z,97385.84
2018-12-20T20:50:08.871Z,97391.64
2018-12-20T20:52:50.087Z,97389.36
2018-12-20T20:55:22.575Z,97390.67
2018-12-20T20:58:17.357Z,97398.94
2018-12-20T21:00:50.702Z,97397.75
2018-12-20T21:03:38.636Z,97397.17
2018-12-20T21:06:09.992Z,97398.58
2018-12-20T21:08:51.844Z,97399.95
2018-12-20T21:11:24.979Z,97413.31
2018-12-20T21:14:07.246Z,97403.28
2018-12-20T21:16:38.235Z,97399.88
2018-12-20T21:19:12.272Z,97403.55
2018-12-20T21:21:54.034Z,97420.57
2018-12-20T21:24:29.499Z,97419.91
2018-12-20T21:27:12.158Z,97415.41
2018-12-20T21:29:44.727Z,97424.98
2018-12-20T21:32:27.224Z,97421.69
2018-12-20T21:35:10.753Z,97417.71
2018-12-20T21:40:45.997Z,97419.13
2018-12-20T21:43:27.987Z,97420.22
2018-12-20T21:46:01.267Z,97421.61
2018-12-20T21:48:45.262Z,97424.89
2018-12-20T21:51:22.903Z,97418.84
2018-12-20T21:54:04.241Z,97412.61
2018-12-20T21:56:47.577Z,97419.81
2018-12-20T21:59:36.554Z,97417.78
2018-12-20T22:02:19.243Z,97428.64
2018-12-20T22:05:01.008Z,97433.78
2018-12-20T22:07:42.843Z,97435.20
2018-12-20T22:10:16.979Z,97434.64
2018-12-20T22:12:58.639Z,97431.77
2018-12-20T22:15:39.828Z,97431.06
2018-12-20T22:18:21.807Z,97433.39
2018-12-20T22:20:55.011Z,97441.83
2018-12-20T22:28:34.390Z,97453.42
2018-12-20T22:31:07.555Z,97463.99
2018-12-20T22:33:44.494Z,97466.47
2018-12-20T22:36:26.230Z,97468.64
2018-12-20T22:39:01.823Z,97463.19
2018-12-20T22:41:34.350Z,97461.86
2018-12-20T22:44:16.743Z,97452.12
2018-12-20T22:47:04.993Z,97441.52
2018-12-20T22:49:38.786Z,97439.79
2018-12-20T22:52:20.411Z,97439.56
2018-12-20T22:55:02.224Z,97439.61
2018-12-20T22:57:35.646Z,97437.14
2018-12-20T23:00:12.158Z,97431.67
2018-12-20T23:02:53.943Z,97433.53
2018-12-20T23:05:36.018Z,97433.91
2018-12-20T23:08:17.945Z,97433.91
2018-12-20T23:10:51.203Z,97425.44
2018-12-20T23:13:32.993Z,97427.08
2018-12-20T23:16:17.034Z,97426.49
2018-12-20T23:18:59.165Z,97434.99
2018-12-20T23:21:35.839Z,97433.31
2018-12-20T23:24:17.256Z,97431.87
2018-12-20T23:26:58.443Z,97429.56
2018-12-20T23:29:29.475Z,97441.11
2018-12-20T23:32:12.436Z,97438.94
2018-12-20T23:34:54.123Z,97450.96
2018-12-20T23:37:36.040Z,97447.22
2018-12-20T23:40:09.123Z,97439.67
2018-12-20T23:42:46.692Z,97438.41
2018-12-20T23:45:21.659Z,97429.28
2018-12-20T23:48:02.928Z,97432.37
2018-12-20T23:50:36.203Z,97432.05
2018-12-20T23:53:17.852Z,97423.49
2018-12-20T23:55:59.833Z,97428.72
2018-12-20T23:58:41.864Z,97428.84
